Bradninch, United Kingdom
Current Conditions -  °F | °C
As of 11:50 AM on Thursday 30 Oct 2014 (Local Time) from EGTE Reporting Station
Broken Clouds Broken Clouds  
Wind Chill: 61°   Ceiling: 700
Heat Index: 61°   Visibility: 4mi
Dew Point: 59°   Wind: 9mph
Humidity: 94%   Direction: 160°SSE
Pressure: 30.03"   Gusts: NA
Location:  50.83°N, 3.42°W
Report Text: EGTE 301150Z 16008KT 6000 BKN007 16/15 Q1017
Loading
Personal Weather Stations






























Interactive Weather Map
Tropical Storm Tracking
New forecast layout! Learn more

10-Day Weather Forecast

Advertisements
Track Severe Weather on mobile